sensor_id;sensor_type;location;lat;lon;timestamp;pressure;altitude;pressure_sealevel;temperature
42197;BMP280;27866;48.146;17.098;2023-06-04T00:03:49;99743.38;;;19.75
42197;BMP280;27866;48.146;17.098;2023-06-04T00:08:00;99746.00;;;19.75
42197;BMP280;27866;48.146;17.098;2023-06-04T00:12:11;99746.31;;;19.73
42197;BMP280;27866;48.146;17.098;2023-06-04T00:16:22;99738.59;;;19.71
42197;BMP280;27866;48.146;17.098;2023-06-04T00:20:33;99741.19;;;19.63
42197;BMP280;27866;48.146;17.098;2023-06-04T00:24:44;99743.81;;;19.63
42197;BMP280;27866;48.146;17.098;2023-06-04T00:28:55;99747.09;;;19.58
42197;BMP280;27866;48.146;17.098;2023-06-04T00:33:07;99747.91;;;19.50
42197;BMP280;27866;48.146;17.098;2023-06-04T00:37:18;99749.19;;;19.46
42197;BMP280;27866;48.146;17.098;2023-06-04T00:41:29;99751.50;;;19.42
42197;BMP280;27866;48.146;17.098;2023-06-04T00:45:40;99749.13;;;19.39
42197;BMP280;27866;48.146;17.098;2023-06-04T00:49:55;99744.41;;;19.42
42197;BMP280;27866;48.146;17.098;2023-06-04T00:54:07;99754.25;;;19.40
42197;BMP280;27866;48.146;17.098;2023-06-04T00:58:22;99752.75;;;19.38
42197;BMP280;27866;48.146;17.098;2023-06-04T01:02:37;99754.19;;;19.25
42197;BMP280;27866;48.146;17.098;2023-06-04T01:06:50;99749.44;;;19.28
42197;BMP280;27866;48.146;17.098;2023-06-04T01:11:02;99735.63;;;19.26
42197;BMP280;27866;48.146;17.098;2023-06-04T01:15:13;99754.63;;;19.20
42197;BMP280;27866;48.146;17.098;2023-06-04T01:24:05;99751.06;;;19.29
42197;BMP280;27866;48.146;17.098;2023-06-04T01:28:19;99751.16;;;19.44
42197;BMP280;27866;48.146;17.098;2023-06-04T01:32:31;99743.34;;;19.68
42197;BMP280;27866;48.146;17.098;2023-06-04T01:36:44;99744.19;;;19.84
42197;BMP280;27866;48.146;17.098;2023-06-04T01:40:55;99747.66;;;19.92
42197;BMP280;27866;48.146;17.098;2023-06-04T01:45:08;99746.69;;;20.01
42197;BMP280;27866;48.146;17.098;2023-06-04T01:49:20;99746.06;;;19.99
42197;BMP280;27866;48.146;17.098;2023-06-04T01:53:31;99739.31;;;19.96
42197;BMP280;27866;48.146;17.098;2023-06-04T01:57:43;99745.22;;;19.98
42197;BMP280;27866;48.146;17.098;2023-06-04T02:01:54;99744.41;;;20.13
42197;BMP280;27866;48.146;17.098;2023-06-04T02:06:06;99746.69;;;20.01
42197;BMP280;27866;48.146;17.098;2023-06-04T02:10:19;99757.56;;;20.13
42197;BMP280;27866;48.146;17.098;2023-06-04T02:14:31;99745.25;;;20.14
42197;BMP280;27866;48.146;17.098;2023-06-04T02:18:42;99753.63;;;20.17
42197;BMP280;27866;48.146;17.098;2023-06-04T02:22:56;99756.56;;;20.14
42197;BMP280;27866;48.146;17.098;2023-06-04T02:27:08;99757.53;;;19.98
42197;BMP280;27866;48.146;17.098;2023-06-04T02:31:20;99753.41;;;19.95
42197;BMP280;27866;48.146;17.098;2023-06-04T02:35:32;99759.34;;;20.05
42197;BMP280;27866;48.146;17.098;2023-06-04T02:39:43;99755.91;;;20.12
42197;BMP280;27866;48.146;17.098;2023-06-04T02:43:54;99744.91;;;20.09
42197;BMP280;27866;48.146;17.098;2023-06-04T02:48:05;99749.00;;;20.11
42197;BMP280;27866;48.146;17.098;2023-06-04T02:52:16;99750.78;;;19.95
42197;BMP280;27866;48.146;17.098;2023-06-04T02:56:27;99755.06;;;19.96
42197;BMP280;27866;48.146;17.098;2023-06-04T03:00:39;99754.25;;;19.96
42197;BMP280;27866;48.146;17.098;2023-06-04T03:04:51;99751.59;;;19.88
42197;BMP280;27866;48.146;17.098;2023-06-04T03:09:03;99753.94;;;19.99
42197;BMP280;27866;48.146;17.098;2023-06-04T03:13:14;99760.38;;;20.12
42197;BMP280;27866;48.146;17.098;2023-06-04T03:17:26;99767.41;;;20.03
42197;BMP280;27866;48.146;17.098;2023-06-04T03:21:37;99775.13;;;20.05
42197;BMP280;27866;48.146;17.098;2023-06-04T03:25:50;99775.50;;;20.17
42197;BMP280;27866;48.146;17.098;2023-06-04T03:30:04;99777.81;;;20.28
42197;BMP280;27866;48.146;17.098;2023-06-04T03:34:26;99784.56;;;20.23
42197;BMP280;27866;48.146;17.098;2023-06-04T03:38:37;99782.44;;;20.34
42197;BMP280;27866;48.146;17.098;2023-06-04T03:42:48;99781.59;;;20.33
42197;BMP280;27866;48.146;17.098;2023-06-04T03:47:01;99785.38;;;20.39
42197;BMP280;27866;48.146;17.098;2023-06-04T03:51:13;99782.91;;;20.30
42197;BMP280;27866;48.146;17.098;2023-06-04T03:55:24;99786.38;;;20.46
42197;BMP280;27866;48.146;17.098;2023-06-04T03:59:36;99791.13;;;20.42
42197;BMP280;27866;48.146;17.098;2023-06-04T04:03:47;99797.72;;;20.38
42197;BMP280;27866;48.146;17.098;2023-06-04T04:08:00;99799.69;;;20.29
42197;BMP280;27866;48.146;17.098;2023-06-04T04:12:16;99796.56;;;20.48
42197;BMP280;27866;48.146;17.098;2023-06-04T04:16:27;99807.56;;;20.52
42197;BMP280;27866;48.146;17.098;2023-06-04T04:20:38;99812.53;;;20.55
42197;BMP280;27866;48.146;17.098;2023-06-04T04:24:53;99814.31;;;20.31
42197;BMP280;27866;48.146;17.098;2023-06-04T04:29:04;99817.44;;;20.27
42197;BMP280;27866;48.146;17.098;2023-06-04T04:33:20;99813.63;;;20.21
42197;BMP280;27866;48.146;17.098;2023-06-04T04:37:32;99806.41;;;20.31
42197;BMP280;27866;48.146;17.098;2023-06-04T04:41:43;99813.34;;;20.40
42197;BMP280;27866;48.146;17.098;2023-06-04T04:45:54;99815.81;;;20.41
42197;BMP280;27866;48.146;17.098;2023-06-04T04:50:06;99819.75;;;20.37
42197;BMP280;27866;48.146;17.098;2023-06-04T04:54:18;99816.16;;;20.38
42197;BMP280;27866;48.146;17.098;2023-06-04T04:58:29;99822.53;;;20.28
42197;BMP280;27866;48.146;17.098;2023-06-04T05:02:40;99822.19;;;20.23
42197;BMP280;27866;48.146;17.098;2023-06-04T05:06:54;99816.72;;;20.09
42197;BMP280;27866;48.146;17.098;2023-06-04T05:11:05;99816.25;;;20.14
42197;BMP280;27866;48.146;17.098;2023-06-04T05:15:16;99821.41;;;20.38
42197;BMP280;27866;48.146;17.098;2023-06-04T05:19:30;99827.66;;;20.45
42197;BMP280;27866;48.146;17.098;2023-06-04T05:23:45;99826.81;;;20.45
42197;BMP280;27866;48.146;17.098;2023-06-04T05:28:00;99830.28;;;20.60
42197;BMP280;27866;48.146;17.098;2023-06-04T05:32:12;99836.22;;;20.62
42197;BMP280;27866;48.146;17.098;2023-06-04T05:36:23;99840.16;;;20.59
42197;BMP280;27866;48.146;17.098;2023-06-04T05:40:39;99833.91;;;20.75
42197;BMP280;27866;48.146;17.098;2023-06-04T05:44:51;99845.09;;;20.85
42197;BMP280;27866;48.146;17.098;2023-06-04T05:49:04;99839.66;;;20.78
42197;BMP280;27866;48.146;17.098;2023-06-04T05:53:15;99847.38;;;20.88
42197;BMP280;27866;48.146;17.098;2023-06-04T05:57:27;99853.63;;;20.94
42197;BMP280;27866;48.146;17.098;2023-06-04T06:01:40;99856.94;;;20.89
42197;BMP280;27866;48.146;17.098;2023-06-04T06:05:52;99863.69;;;20.91
42197;BMP280;27866;48.146;17.098;2023-06-04T06:10:04;99862.84;;;20.90
42197;BMP280;27866;48.146;17.098;2023-06-04T06:14:18;99870.44;;;21.01
42197;BMP280;27866;48.146;17.098;2023-06-04T06:18:29;99870.41;;;20.86
42197;BMP280;27866;48.146;17.098;2023-06-04T06:22:40;99871.63;;;20.99
42197;BMP280;27866;48.146;17.098;2023-06-04T06:26:52;99877.84;;;20.98
42197;BMP280;27866;48.146;17.098;2023-06-04T06:31:03;99876.19;;;21.04
42197;BMP280;27866;48.146;17.098;2023-06-04T06:35:16;99889.22;;;20.98
42197;BMP280;27866;48.146;17.098;2023-06-04T06:39:28;99892.28;;;20.86
42197;BMP280;27866;48.146;17.098;2023-06-04T06:43:39;99896.41;;;20.89
42197;BMP280;27866;48.146;17.098;2023-06-04T06:47:50;99902.00;;;20.86
42197;BMP280;27866;48.146;17.098;2023-06-04T06:52:01;99892.13;;;20.88
42197;BMP280;27866;48.146;17.098;2023-06-04T06:56:14;99889.38;;;20.97
42197;BMP280;27866;48.146;17.098;2023-06-04T07:00:26;99890.50;;;20.94
42197;BMP280;27866;48.146;17.098;2023-06-04T07:04:38;99887.69;;;20.88
42197;BMP280;27866;48.146;17.098;2023-06-04T07:08:49;99897.25;;;20.74
42197;BMP280;27866;48.146;17.098;2023-06-04T07:13:00;99896.75;;;20.70
42197;BMP280;27866;48.146;17.098;2023-06-04T07:17:12;99906.13;;;20.80
42197;BMP280;27866;48.146;17.098;2023-06-04T07:21:23;99904.50;;;20.87
42197;BMP280;27866;48.146;17.098;2023-06-04T07:25:34;99911.22;;;20.89
42197;BMP280;27866;48.146;17.098;2023-06-04T07:29:46;99913.06;;;21.04
42197;BMP280;27866;48.146;17.098;2023-06-04T07:33:57;99912.09;;;21.13
42197;BMP280;27866;48.146;17.098;2023-06-04T07:38:08;99912.41;;;21.10
42197;BMP280;27866;48.146;17.098;2023-06-04T07:42:19;99916.03;;;21.17
42197;BMP280;27866;48.146;17.098;2023-06-04T07:46:30;99917.84;;;21.24
42197;BMP280;27866;48.146;17.098;2023-06-04T07:50:41;99915.00;;;21.41
42197;BMP280;27866;48.146;17.098;2023-06-04T07:54:53;99924.72;;;21.48
42197;BMP280;27866;48.146;17.098;2023-06-04T07:59:04;99924.38;;;21.51
42197;BMP280;27866;48.146;17.098;2023-06-04T08:03:15;99920.91;;;21.51
42197;BMP280;27866;48.146;17.098;2023-06-04T08:07:26;99923.53;;;21.66
42197;BMP280;27866;48.146;17.098;2023-06-04T08:11:38;99929.44;;;21.68
42197;BMP280;27866;48.146;17.098;2023-06-04T08:15:49;99925.84;;;21.69
42197;BMP280;27866;48.146;17.098;2023-06-04T08:20:01;99924.06;;;22.07
42197;BMP280;27866;48.146;17.098;2023-06-04T08:24:12;99932.13;;;22.13
42197;BMP280;27866;48.146;17.098;2023-06-04T08:28:23;99939.19;;;22.13
42197;BMP280;27866;48.146;17.098;2023-06-04T08:32:34;99951.94;;;22.02
42197;BMP280;27866;48.146;17.098;2023-06-04T08:36:45;99946.09;;;21.77
42197;BMP280;27866;48.146;17.098;2023-06-04T08:41:02;99950.19;;;21.79
42197;BMP280;27866;48.146;17.098;2023-06-04T08:45:15;99946.72;;;21.86
42197;BMP280;27866;48.146;17.098;2023-06-04T08:49:27;99953.19;;;21.68
42197;BMP280;27866;48.146;17.098;2023-06-04T08:53:40;99951.22;;;21.70
42197;BMP280;27866;48.146;17.098;2023-06-04T08:57:52;99955.47;;;21.87
42197;BMP280;27866;48.146;17.098;2023-06-04T09:02:03;99957.25;;;21.86
42197;BMP280;27866;48.146;17.098;2023-06-04T09:06:15;99957.25;;;21.86
42197;BMP280;27866;48.146;17.098;2023-06-04T09:10:26;99952.19;;;21.77
42197;BMP280;27866;48.146;17.098;2023-06-04T09:14:40;99966.34;;;21.68
42197;BMP280;27866;48.146;17.098;2023-06-04T09:18:51;99969.47;;;21.64
42197;BMP280;27866;48.146;17.098;2023-06-04T09:23:12;99958.63;;;21.59
42197;BMP280;27866;48.146;17.098;2023-06-04T09:27:23;99956.50;;;21.55
42197;BMP280;27866;48.146;17.098;2023-06-04T09:31:36;99960.63;;;21.49
42197;BMP280;27866;48.146;17.098;2023-06-04T09:35:55;99965.53;;;21.52
42197;BMP280;27866;48.146;17.098;2023-06-04T09:40:07;99966.38;;;21.45
42197;BMP280;27866;48.146;17.098;2023-06-04T09:44:18;99955.34;;;21.57
42197;BMP280;27866;48.146;17.098;2023-06-04T09:48:29;99974.94;;;21.62
42197;BMP280;27866;48.146;17.098;2023-06-04T09:52:40;99972.13;;;21.64
42197;BMP280;27866;48.146;17.098;2023-06-04T09:56:52;99976.91;;;21.76
42197;BMP280;27866;48.146;17.098;2023-06-04T10:01:04;99965.19;;;21.78
42197;BMP280;27866;48.146;17.098;2023-06-04T10:05:16;99970.16;;;21.74
42197;BMP280;27866;48.146;17.098;2023-06-04T10:09:27;99962.88;;;21.83
42197;BMP280;27866;48.146;17.098;2023-06-04T10:13:53;99973.28;;;21.46
42197;BMP280;27866;48.146;17.098;2023-06-04T10:18:07;99957.63;;;21.60
42197;BMP280;27866;48.146;17.098;2023-06-04T10:22:20;99962.91;;;21.52
42197;BMP280;27866;48.146;17.098;2023-06-04T10:26:35;99958.97;;;21.72
42197;BMP280;27866;48.146;17.098;2023-06-04T10:30:48;99970.25;;;21.95
42197;BMP280;27866;48.146;17.098;2023-06-04T10:35:05;99967.13;;;22.37
42197;BMP280;27866;48.146;17.098;2023-06-04T10:39:28;99970.59;;;23.40
42197;BMP280;27866;48.146;17.098;2023-06-04T10:43:39;99968.81;;;24.04
42197;BMP280;27866;48.146;17.098;2023-06-04T10:48:02;99953.41;;;24.56
42197;BMP280;27866;48.146;17.098;2023-06-04T10:52:13;99962.53;;;24.68
42197;BMP280;27866;48.146;17.098;2023-06-04T10:56:31;99953.44;;;24.28
42197;BMP280;27866;48.146;17.098;2023-06-04T11:00:49;99960.06;;;23.68
42197;BMP280;27866;48.146;17.098;2023-06-04T11:05:01;99956.91;;;24.14
42197;BMP280;27866;48.146;17.098;2023-06-04T11:09:13;99957.28;;;24.54
42197;BMP280;27866;48.146;17.098;2023-06-04T11:13:27;99966.59;;;24.36
42197;BMP280;27866;48.146;17.098;2023-06-04T11:17:38;99962.97;;;23.95
42197;BMP280;27866;48.146;17.098;2023-06-04T11:21:50;99962.13;;;23.94
42197;BMP280;27866;48.146;17.098;2023-06-04T11:26:01;99964.25;;;24.12
42197;BMP280;27866;48.146;17.098;2023-06-04T11:30:12;99958.97;;;24.12
42197;BMP280;27866;48.146;17.098;2023-06-04T11:34:29;99960.09;;;24.38
42197;BMP280;27866;48.146;17.098;2023-06-04T11:38:40;99969.31;;;24.56
42197;BMP280;27866;48.146;17.098;2023-06-04T11:42:51;99962.13;;;24.50
42197;BMP280;27866;48.146;17.098;2023-06-04T11:47:08;99961.81;;;24.94
42197;BMP280;27866;48.146;17.098;2023-06-04T11:51:20;99962.69;;;25.61
42197;BMP280;27866;48.146;17.098;2023-06-04T11:55:31;99972.97;;;25.97
42197;BMP280;27866;48.146;17.098;2023-06-04T11:59:43;99962.06;;;25.59
42197;BMP280;27866;48.146;17.098;2023-06-04T12:03:54;99968.75;;;25.76
42197;BMP280;27866;48.146;17.098;2023-06-04T12:08:06;99966.00;;;25.90
42197;BMP280;27866;48.146;17.098;2023-06-04T12:12:22;99969.81;;;25.61
42197;BMP280;27866;48.146;17.098;2023-06-04T12:16:36;99966.31;;;25.34
42197;BMP280;27866;48.146;17.098;2023-06-04T12:20:47;99967.38;;;25.39
42197;BMP280;27866;48.146;17.098;2023-06-04T12:24:58;99963.59;;;25.48
42197;BMP280;27866;48.146;17.098;2023-06-04T12:29:13;99967.53;;;26.11
42197;BMP280;27866;48.146;17.098;2023-06-04T12:33:25;99952.91;;;26.21
42197;BMP280;27866;48.146;17.098;2023-06-04T12:37:36;99957.69;;;25.99
42197;BMP280;27866;48.146;17.098;2023-06-04T12:41:47;99953.78;;;26.01
42197;BMP280;27866;48.146;17.098;2023-06-04T12:45:59;99945.50;;;25.78
42197;BMP280;27866;48.146;17.098;2023-06-04T12:50:10;99960.44;;;25.38
42197;BMP280;27866;48.146;17.098;2023-06-04T12:54:21;99952.72;;;25.90
42197;BMP280;27866;48.146;17.098;2023-06-04T12:58:32;99959.09;;;26.01
42197;BMP280;27866;48.146;17.098;2023-06-04T13:02:43;99963.84;;;26.06
42197;BMP280;27866;48.146;17.098;2023-06-04T13:06:55;99954.03;;;25.53
42197;BMP280;27866;48.146;17.098;2023-06-04T13:11:09;99960.47;;;25.18
42197;BMP280;27866;48.146;17.098;2023-06-04T13:15:21;99946.75;;;25.35
42197;BMP280;27866;48.146;17.098;2023-06-04T13:19:35;99958.94;;;25.29
42197;BMP280;27866;48.146;17.098;2023-06-04T13:23:46;99951.03;;;25.62
42197;BMP280;27866;48.146;17.098;2023-06-04T13:27:57;99957.19;;;26.68
42197;BMP280;27866;48.146;17.098;2023-06-04T13:32:08;99963.88;;;27.09
42197;BMP280;27866;48.146;17.098;2023-06-04T13:36:20;99955.75;;;26.59
42197;BMP280;27866;48.146;17.098;2023-06-04T13:40:31;99952.81;;;26.42
42197;BMP280;27866;48.146;17.098;2023-06-04T13:44:43;99959.25;;;26.66
42197;BMP280;27866;48.146;17.098;2023-06-04T13:48:54;99948.34;;;26.42
42197;BMP280;27866;48.146;17.098;2023-06-04T13:53:05;99952.44;;;26.44
42197;BMP280;27866;48.146;17.098;2023-06-04T13:57:16;99946.91;;;26.13
42197;BMP280;27866;48.146;17.098;2023-06-04T14:01:27;99947.84;;;25.93
42197;BMP280;27866;48.146;17.098;2023-06-04T14:05:38;99958.03;;;25.90
42197;BMP280;27866;48.146;17.098;2023-06-04T14:09:49;99941.34;;;25.49
42197;BMP280;27866;48.146;17.098;2023-06-04T14:14:05;99944.22;;;25.74
42197;BMP280;27866;48.146;17.098;2023-06-04T14:18:16;99933.84;;;26.44
42197;BMP280;27866;48.146;17.098;2023-06-04T14:22:27;99940.56;;;26.41
42197;BMP280;27866;48.146;17.098;2023-06-04T14:26:38;99929.00;;;26.67
42197;BMP280;27866;48.146;17.098;2023-06-04T14:30:49;99922.16;;;26.97
42197;BMP280;27866;48.146;17.098;2023-06-04T14:35:01;99926.56;;;26.72
42197;BMP280;27866;48.146;17.098;2023-06-04T14:39:12;99934.72;;;26.25
42197;BMP280;27866;48.146;17.098;2023-06-04T14:43:23;99935.97;;;25.89
42197;BMP280;27866;48.146;17.098;2023-06-04T14:47:34;99942.78;;;25.71
42197;BMP280;27866;48.146;17.098;2023-06-04T14:51:45;99947.56;;;25.15
42197;BMP280;27866;48.146;17.098;2023-06-04T14:55:57;99954.88;;;24.58
42197;BMP280;27866;48.146;17.098;2023-06-04T15:00:08;99955.28;;;24.13
42197;BMP280;27866;48.146;17.098;2023-06-04T15:04:19;99950.81;;;24.00
42197;BMP280;27866;48.146;17.098;2023-06-04T15:08:31;99942.47;;;23.75
42197;BMP280;27866;48.146;17.098;2023-06-04T15:12:42;99947.00;;;23.38
42197;BMP280;27866;48.146;17.098;2023-06-04T15:16:54;99940.28;;;23.64
42197;BMP280;27866;48.146;17.098;2023-06-04T15:21:05;99947.00;;;23.52
42197;BMP280;27866;48.146;17.098;2023-06-04T15:25:16;99930.09;;;23.61
42197;BMP280;27866;48.146;17.098;2023-06-04T15:29:27;99930.56;;;23.43
42197;BMP280;27866;48.146;17.098;2023-06-04T15:33:38;99931.72;;;23.48
42197;BMP280;27866;48.146;17.098;2023-06-04T15:37:49;99926.56;;;23.47
42197;BMP280;27866;48.146;17.098;2023-06-04T15:42:01;99924.31;;;23.58
42197;BMP280;27866;48.146;17.098;2023-06-04T15:46:12;99926.88;;;23.52
42197;BMP280;27866;48.146;17.098;2023-06-04T15:50:23;99922.50;;;23.58
42197;BMP280;27866;48.146;17.098;2023-06-04T15:54:34;99924.41;;;23.50
42197;BMP280;27866;48.146;17.098;2023-06-04T15:58:46;99926.59;;;23.61
42197;BMP280;27866;48.146;17.098;2023-06-04T16:02:57;99918.31;;;23.50
42197;BMP280;27866;48.146;17.098;2023-06-04T16:07:08;99915.66;;;23.50
42197;BMP280;27866;48.146;17.098;2023-06-04T16:11:19;99913.72;;;23.44
42197;BMP280;27866;48.146;17.098;2023-06-04T16:15:30;99917.28;;;23.37
42197;BMP280;27866;48.146;17.098;2023-06-04T16:19:41;99922.13;;;23.11
42197;BMP280;27866;48.146;17.098;2023-06-04T16:23:52;99918.31;;;23.14
42197;BMP280;27866;48.146;17.098;2023-06-04T16:28:03;99918.16;;;23.08
42197;BMP280;27866;48.146;17.098;2023-06-04T16:32:14;99914.09;;;22.97
42197;BMP280;27866;48.146;17.098;2023-06-04T16:36:25;99915.78;;;22.98
42197;BMP280;27866;48.146;17.098;2023-06-04T16:40:37;99915.13;;;22.96
42197;BMP280;27866;48.146;17.098;2023-06-04T16:44:48;99910.13;;;23.01
42197;BMP280;27866;48.146;17.098;2023-06-04T16:49:00;99916.41;;;23.00
42197;BMP280;27866;48.146;17.098;2023-06-04T16:53:11;99911.91;;;22.87
42197;BMP280;27866;48.146;17.098;2023-06-04T16:57:22;99914.97;;;22.76
42197;BMP280;27866;48.146;17.098;2023-06-04T17:01:33;99912.44;;;22.61
42197;BMP280;27866;48.146;17.098;2023-06-04T17:05:45;99906.19;;;22.54
42197;BMP280;27866;48.146;17.098;2023-06-04T17:09:57;99909.88;;;22.45
42197;BMP280;27866;48.146;17.098;2023-06-04T17:14:08;99916.97;;;22.37
42197;BMP280;27866;48.146;17.098;2023-06-04T17:18:19;99917.97;;;22.36
42197;BMP280;27866;48.146;17.098;2023-06-04T17:22:31;99912.06;;;22.42
42197;BMP280;27866;48.146;17.098;2023-06-04T17:26:42;99918.25;;;22.19
42197;BMP280;27866;48.146;17.098;2023-06-04T17:30:53;99916.25;;;22.21
42197;BMP280;27866;48.146;17.098;2023-06-04T17:35:04;99926.16;;;22.19
42197;BMP280;27866;48.146;17.098;2023-06-04T17:39:16;99919.19;;;22.26
42197;BMP280;27866;48.146;17.098;2023-06-04T17:43:27;99918.88;;;22.21
42197;BMP280;27866;48.146;17.098;2023-06-04T17:47:38;99914.31;;;22.15
42197;BMP280;27866;48.146;17.098;2023-06-04T17:51:50;99910.78;;;22.22
42197;BMP280;27866;48.146;17.098;2023-06-04T17:56:01;99918.94;;;22.13
42197;BMP280;27866;48.146;17.098;2023-06-04T18:00:13;99919.25;;;22.10
42197;BMP280;27866;48.146;17.098;2023-06-04T18:04:24;99926.50;;;22.08
42197;BMP280;27866;48.146;17.098;2023-06-04T18:08:35;99920.28;;;22.02
42197;BMP280;27866;48.146;17.098;2023-06-04T18:12:46;99933.03;;;21.91
42197;BMP280;27866;48.146;17.098;2023-06-04T18:16:58;99936.31;;;21.92
42197;BMP280;27866;48.146;17.098;2023-06-04T18:21:10;99928.28;;;21.78
42197;BMP280;27866;48.146;17.098;2023-06-04T18:25:21;99930.25;;;21.84
42197;BMP280;27866;48.146;17.098;2023-06-04T18:29:33;99931.22;;;21.91
42197;BMP280;27866;48.146;17.098;2023-06-04T18:33:51;99923.44;;;21.97
42197;BMP280;27866;48.146;17.098;2023-06-04T18:38:02;99933.53;;;21.86
42197;BMP280;27866;48.146;17.098;2023-06-04T18:42:15;99937.16;;;21.93
42197;BMP280;27866;48.146;17.098;2023-06-04T18:46:26;99943.56;;;21.98
42197;BMP280;27866;48.146;17.098;2023-06-04T18:50:38;99952.31;;;21.99
42197;BMP280;27866;48.146;17.098;2023-06-04T18:54:50;99953.78;;;21.93
42197;BMP280;27866;48.146;17.098;2023-06-04T18:59:01;99947.38;;;21.80
42197;BMP280;27866;48.146;17.098;2023-06-04T19:03:12;99955.31;;;21.73
42197;BMP280;27866;48.146;17.098;2023-06-04T19:07:23;99951.88;;;21.80
42197;BMP280;27866;48.146;17.098;2023-06-04T19:11:34;99952.00;;;21.78
42197;BMP280;27866;48.146;17.098;2023-06-04T19:15:46;99955.34;;;21.65
42197;BMP280;27866;48.146;17.098;2023-06-04T19:20:00;99962.25;;;21.43
42197;BMP280;27866;48.146;17.098;2023-06-04T19:24:11;99964.91;;;21.43
42197;BMP280;27866;48.146;17.098;2023-06-04T19:28:23;99953.88;;;21.47
42197;BMP280;27866;48.146;17.098;2023-06-04T19:32:34;99964.22;;;21.48
42197;BMP280;27866;48.146;17.098;2023-06-04T19:36:45;99963.75;;;21.45
42197;BMP280;27866;48.146;17.098;2023-06-04T19:40:56;99964.91;;;21.35
42197;BMP280;27866;48.146;17.098;2023-06-04T19:45:08;99967.53;;;21.35
42197;BMP280;27866;48.146;17.098;2023-06-04T19:49:19;99977.75;;;21.30
42197;BMP280;27866;48.146;17.098;2023-06-04T19:53:30;99968.38;;;21.35
42197;BMP280;27866;48.146;17.098;2023-06-04T19:57:42;99977.41;;;21.33
42197;BMP280;27866;48.146;17.098;2023-06-04T20:01:53;99972.81;;;21.35
42197;BMP280;27866;48.146;17.098;2023-06-04T20:06:04;99985.00;;;21.28
42197;BMP280;27866;48.146;17.098;2023-06-04T20:10:16;99978.06;;;21.27
42197;BMP280;27866;48.146;17.098;2023-06-04T20:14:29;99980.72;;;21.27
42197;BMP280;27866;48.146;17.098;2023-06-04T20:18:40;99984.66;;;21.31
42197;BMP280;27866;48.146;17.098;2023-06-04T20:22:51;99990.94;;;21.38
42197;BMP280;27866;48.146;17.098;2023-06-04T20:27:02;99991.91;;;21.29
42197;BMP280;27866;48.146;17.098;2023-06-04T20:31:14;99986.81;;;21.20
42197;BMP280;27866;48.146;17.098;2023-06-04T20:35:25;99983.84;;;21.15
42197;BMP280;27866;48.146;17.098;2023-06-04T20:39:36;99985.00;;;21.13
42197;BMP280;27866;48.146;17.098;2023-06-04T20:43:53;99994.53;;;20.98
42197;BMP280;27866;48.146;17.098;2023-06-04T20:48:05;99994.38;;;21.00
42197;BMP280;27866;48.146;17.098;2023-06-04T20:52:16;99985.34;;;21.02
42197;BMP280;27866;48.146;17.098;2023-06-04T20:56:27;99980.06;;;21.02
42197;BMP280;27866;48.146;17.098;2023-06-04T21:00:38;99985.16;;;21.04
42197;BMP280;27866;48.146;17.098;2023-06-04T21:04:49;99974.63;;;21.04
42197;BMP280;27866;48.146;17.098;2023-06-04T21:09:00;99985.59;;;20.91
42197;BMP280;27866;48.146;17.098;2023-06-04T21:13:11;99982.00;;;20.92
42197;BMP280;27866;48.146;17.098;2023-06-04T21:17:22;99978.19;;;20.79
42197;BMP280;27866;48.146;17.098;2023-06-04T21:21:34;99969.16;;;20.82
42197;BMP280;27866;48.146;17.098;2023-06-04T21:25:45;99977.38;;;20.87
42197;BMP280;27866;48.146;17.098;2023-06-04T21:29:56;99976.03;;;20.83
42197;BMP280;27866;48.146;17.098;2023-06-04T21:34:07;99979.69;;;20.82
42197;BMP280;27866;48.146;17.098;2023-06-04T21:38:19;99981.13;;;20.76
42197;BMP280;27866;48.146;17.098;2023-06-04T21:42:30;99979.50;;;20.75
42197;BMP280;27866;48.146;17.098;2023-06-04T21:46:41;99977.34;;;20.71
42197;BMP280;27866;48.146;17.098;2023-06-04T21:50:52;99984.09;;;20.74
42197;BMP280;27866;48.146;17.098;2023-06-04T21:55:03;99991.34;;;20.79
42197;BMP280;27866;48.146;17.098;2023-06-04T21:59:15;99987.22;;;20.77
42197;BMP280;27866;48.146;17.098;2023-06-04T22:03:26;99992.00;;;20.74
42197;BMP280;27866;48.146;17.098;2023-06-04T22:07:37;100002.81;;;20.63
42197;BMP280;27866;48.146;17.098;2023-06-04T22:11:48;100002.47;;;20.58
42197;BMP280;27866;48.146;17.098;2023-06-04T22:15:59;100003.31;;;20.59
42197;BMP280;27866;48.146;17.098;2023-06-04T22:20:11;99999.88;;;20.66
42197;BMP280;27866;48.146;17.098;2023-06-04T22:24:22;100006.00;;;20.74
42197;BMP280;27866;48.146;17.098;2023-06-04T22:28:33;100007.09;;;20.64
42197;BMP280;27866;48.146;17.098;2023-06-04T22:32:44;100009.50;;;20.50
42197;BMP280;27866;48.146;17.098;2023-06-04T22:36:56;100009.91;;;20.62
42197;BMP280;27866;48.146;17.098;2023-06-04T22:41:07;99993.41;;;20.53
42197;BMP280;27866;48.146;17.098;2023-06-04T22:45:19;99988.16;;;20.53
42197;BMP280;27866;48.146;17.098;2023-06-04T22:49:30;99988.78;;;20.47
42197;BMP280;27866;48.146;17.098;2023-06-04T22:53:41;99995.00;;;20.31
42197;BMP280;27866;48.146;17.098;2023-06-04T22:57:53;99978.28;;;20.47
42197;BMP280;27866;48.146;17.098;2023-06-04T23:02:04;99972.69;;;20.50
42197;BMP280;27866;48.146;17.098;2023-06-04T23:06:15;99983.19;;;20.50
42197;BMP280;27866;48.146;17.098;2023-06-04T23:10:27;99980.91;;;20.47
42197;BMP280;27866;48.146;17.098;2023-06-04T23:14:38;99982.56;;;20.56
42197;BMP280;27866;48.146;17.098;2023-06-04T23:18:49;99984.53;;;20.54
42197;BMP280;27866;48.146;17.098;2023-06-04T23:23:00;99984.38;;;20.47
42197;BMP280;27866;48.146;17.098;2023-06-04T23:27:11;99969.56;;;20.54
42197;BMP280;27866;48.146;17.098;2023-06-04T23:31:22;99975.31;;;20.50
42197;BMP280;27866;48.146;17.098;2023-06-04T23:35:33;99972.00;;;20.48
42197;BMP280;27866;48.146;17.098;2023-06-04T23:39:44;99974.31;;;20.43
42197;BMP280;27866;48.146;17.098;2023-06-04T23:43:55;99963.94;;;20.42
42197;BMP280;27866;48.146;17.098;2023-06-04T23:48:06;99964.41;;;20.30
42197;BMP280;27866;48.146;17.098;2023-06-04T23:52:17;99964.56;;;20.28
42197;BMP280;27866;48.146;17.098;2023-06-04T23:56:28;99964.19;;;20.23
